This is the latest recevied weather packets stored in our database for station/object 5B4APJ-13. If no packets are shown the sender has not sent any weather packets the latest 10 day(s).
| Time | Temp. | Humidity | Pressure | Rain* | Wind** | Luminosity | Snow |
|---|---|---|---|---|---|---|---|
| 1777894325 | 15.56° C | 53% | 1009.3 hPa | 0 mm | 4.47 m/s, 272° | 244 W/m² | - |
| 1777894025 | 16.11° C | 52% | 1009.1 hPa | 0 mm | 8.94 m/s, 262° | 219 W/m² | - |
| 1777893725 | 15.56° C | 55% | 1009.3 hPa | 0 mm | 4.02 m/s, 287° | 766 W/m² | - |
| 1777893425 | 16.11° C | 52% | 1009.1 hPa | 0 mm | 4.02 m/s, 292° | 237 W/m² | - |
| 1777893125 | 16.67° C | 50% | 1009.2 hPa | 0 mm | 4.47 m/s, 294° | 234 W/m² | - |
| 1777892825 | 16.11° C | 52% | 1009.2 hPa | 0 mm | 0.89 m/s, 285° | 257 W/m² | - |
| 1777892525 | 15.56° C | 53% | 1009.4 hPa | 0 mm | 2.24 m/s, 258° | 272 W/m² | - |
| 1777892225 | 15.56° C | 55% | 1009.2 hPa | 0 mm | 1.79 m/s, 262° | 204 W/m² | - |
| 1777891926 | 15.56° C | 54% | 1009.2 hPa | 0 mm | 1.79 m/s, 275° | 185 W/m² | - |
| 1777891626 | 15.56° C | 56% | 1009.3 hPa | 0 mm | 0.89 m/s, 306° | 140 W/m² | - |
| 1777891326 | 15.56° C | 58% | 1009 hPa | 0 mm | 1.34 m/s, 277° | 133 W/m² | - |
| 1777891026 | 15.56° C | 60% | 1009 hPa | 0.25 mm | 1.34 m/s, 272° | 171 W/m² | - |
| 1777890725 | 15.56° C | 62% | 1009.2 hPa | 0.51 mm | 1.79 m/s, 240° | 209 W/m² | - |
| 1777890426 | 15.56° C | 64% | 1009 hPa | 0.51 mm | 2.24 m/s, 243° | 212 W/m² | - |
| 1777890126 | 15.56° C | 61% | 1008.9 hPa | 0.51 mm | 0.89 m/s, 116° | 235 W/m² | - |
| 1777889826 | 15.56° C | 68% | 1008.9 hPa | 0.51 mm | 1.34 m/s, 153° | 1113 W/m² | - |
| 1777889525 | 15° C | 66% | 1008.9 hPa | 0.51 mm | 1.79 m/s, 151° | 258 W/m² | - |
| 1777889225 | 14.44° C | 73% | 1009 hPa | 0.51 mm | 0.89 m/s, 193° | 978 W/m² | - |
| 1777888925 | 13.33° C | 78% | 1008.9 hPa | 0.51 mm | 0.89 m/s, 170° | 866 W/m² | - |
| 1777888626 | 12.78° C | 76% | 1008.9 hPa | 0.51 mm | 0.89 m/s, 237° | 503 W/m² | - |
| 1777888325 | 12.78° C | 77% | 1009 hPa | 0.51 mm | 0.89 m/s, 243° | 436 W/m² | - |
| 1777888025 | 12.22° C | 74% | 1008.9 hPa | 0.51 mm | 2.68 m/s, 251° | 293 W/m² | - |
| 1777887725 | 12.22° C | 72% | 1009 hPa | 0.51 mm | 4.47 m/s, 242° | 200 W/m² | - |
| 1777887425 | 13.33° C | 67% | 1009.2 hPa | 0.25 mm | 4.92 m/s, 238° | 130 W/m² | - |
| 1777887125 | 13.89° C | 62% | 1009.1 hPa | 0 mm | 4.02 m/s, 239° | 87 W/m² | - |
* Rain latest hour (hover to see other rain measurements)
** Current wind speed in m/s (hover to see current wind gust speed)